Time;durP1;ratioP1;P1;durP2;ratioP2;P2;SDS_P1;SDS_P2;PMS_P1;PMS_P2;Temp;Humidity;BMP_temperature;BMP_pressure;BME280_temperature;BME280_humidity;BME280_pressure;Samples;Min_cycle;Max_cycle;Signal;HPM_P1;HPM_P2
2023/07/19 00:00:43;;;;;;;7.20;4.50;;;;;;;;;;6274470;22;20019;-56
2023/07/19 00:03:10;;;;;;;8.80;4.53;;;;;;;;;;6248064;22;20030;-55
2023/07/19 00:05:36;;;;;;;7.75;4.50;;;;;;;;;;6247979;22;20387;-58
2023/07/19 00:08:02;;;;;;;7.80;4.10;;;;;;;;;;6274009;22;20444;-58
2023/07/19 00:10:28;;;;;;;6.03;4.20;;;;;;;;;;6274877;22;20380;-59
2023/07/19 00:12:54;;;;;;;8.30;4.20;;;;;;;;;;6274334;22;20031;-58
2023/07/19 00:15:20;;;;;;;9.85;4.55;;;;;;;;;;6273719;22;20027;-58
2023/07/19 00:17:46;;;;;;;10.77;4.80;;;;;;;;;;6248070;22;20031;-59
2023/07/19 00:20:14;;;;;;;10.73;4.65;;;;;;;;;;6274146;22;20016;-59
2023/07/19 00:22:40;;;;;;;8.82;4.65;;;;;;;;;;6274360;22;20031;-59
2023/07/19 00:25:06;;;;;;;8.90;3.78;;;;;;;;;;6274243;22;20586;-58
2023/07/19 00:27:33;;;;;;;6.35;4.35;;;;;;;;;;6274374;22;20031;-58
2023/07/19 00:29:59;;;;;;;6.95;4.40;;;;;;;;;;6273756;22;20019;-59
2023/07/19 00:32:25;;;;;;;6.38;4.22;;;;;;;;;;6274054;22;20026;-58
2023/07/19 00:34:51;;;;;;;7.65;4.20;;;;;;;;;;6274865;22;20030;-59
2023/07/19 00:37:17;;;;;;;6.70;4.05;;;;;;;;;;6246728;22;20020;-59
2023/07/19 00:39:43;;;;;;;7.65;3.75;;;;;;;;;;6274139;22;20027;-59
2023/07/19 00:42:09;;;;;;;6.68;3.85;;;;;;;;;;6274549;22;20038;-59
2023/07/19 00:44:35;;;;;;;7.50;3.97;;;;;;;;;;6247337;22;20020;-58
2023/07/19 00:47:02;;;;;;;11.60;4.28;;;;;;;;;;6273895;22;20069;-59
2023/07/19 00:49:30;;;;;;;8.38;3.72;;;;;;;;;;6274377;22;20015;-58
2023/07/19 00:51:59;;;;;;;7.03;3.47;;;;;;;;;;6273055;22;20059;-59
2023/07/19 00:54:31;;;;;;;6.20;4.10;;;;;;;;;;6273261;22;20023;-58
2023/07/19 00:56:57;;;;;;;7.80;3.53;;;;;;;;;;6245906;22;20081;-58
2023/07/19 00:59:24;;;;;;;7.25;4.05;;;;;;;;;;6244432;22;20020;-60
2023/07/19 01:01:50;;;;;;;10.32;3.83;;;;;;;;;;6274734;22;20030;-58
2023/07/19 01:04:17;;;;;;;5.70;4.13;;;;;;;;;;6273829;22;20019;-58
2023/07/19 01:06:43;;;;;;;9.20;4.70;;;;;;;;;;6274583;22;20055;-59
2023/07/19 01:09:12;;;;;;;8.80;4.30;;;;;;;;;;6273371;22;20379;-59
2023/07/19 01:11:40;;;;;;;9.27;4.30;;;;;;;;;;6273712;22;20020;-58
2023/07/19 01:14:07;;;;;;;9.43;4.70;;;;;;;;;;6247249;22;20019;-59
2023/07/19 01:16:34;;;;;;;9.65;4.43;;;;;;;;;;6273171;22;20020;-58
2023/07/19 01:19:00;;;;;;;8.20;4.03;;;;;;;;;;6274308;22;20024;-59
2023/07/19 01:21:26;;;;;;;9.25;4.63;;;;;;;;;;6220594;22;20024;-58
2023/07/19 01:23:52;;;;;;;7.97;5.85;;;;;;;;;;6222294;22;20027;-59
2023/07/19 01:26:19;;;;;;;13.32;5.88;;;;;;;;;;6272661;22;20491;-58
2023/07/19 01:28:45;;;;;;;8.65;5.10;;;;;;;;;;6273430;22;20023;-58
2023/07/19 01:31:15;;;;;;;10.95;5.20;;;;;;;;;;6272907;22;20130;-59
2023/07/19 01:33:41;;;;;;;10.33;6.07;;;;;;;;;;6247070;22;20024;-58
2023/07/19 01:36:07;;;;;;;12.75;6.10;;;;;;;;;;6247615;22;20436;-58
2023/07/19 01:38:34;;;;;;;10.35;5.95;;;;;;;;;;6274467;22;20026;-58
2023/07/19 01:41:05;;;;;;;13.45;6.93;;;;;;;;;;6274072;22;20055;-59
2023/07/19 01:43:31;;;;;;;10.75;6.47;;;;;;;;;;6277010;22;20087;-58
2023/07/19 01:45:58;;;;;;;12.90;6.20;;;;;;;;;;6276567;22;20030;-59
2023/07/19 01:48:24;;;;;;;12.93;6.32;;;;;;;;;;6276786;22;20213;-58
2023/07/19 01:50:50;;;;;;;11.77;6.13;;;;;;;;;;6274919;22;20031;-58
2023/07/19 01:53:16;;;;;;;10.43;6.72;;;;;;;;;;6275887;22;20020;-58
2023/07/19 01:55:42;;;;;;;9.40;6.65;;;;;;;;;;6276215;22;20019;-59
2023/07/19 01:58:09;;;;;;;9.63;6.20;;;;;;;;;;6276848;22;20116;-58
2023/07/19 02:00:36;;;;;;;13.38;6.78;;;;;;;;;;6276266;22;20095;-58
2023/07/19 02:03:02;;;;;;;11.07;6.47;;;;;;;;;;6276656;22;20106;-59
2023/07/19 02:05:28;;;;;;;13.10;6.35;;;;;;;;;;6248551;22;20026;-58
2023/07/19 02:07:54;;;;;;;18.38;7.65;;;;;;;;;;6275911;22;20318;-58
2023/07/19 02:10:20;;;;;;;11.90;6.78;;;;;;;;;;6275000;22;20055;-58
2023/07/19 02:12:46;;;;;;;12.27;6.43;;;;;;;;;;6274365;22;20020;-59
2023/07/19 02:15:12;;;;;;;9.73;5.88;;;;;;;;;;6275705;22;20019;-58
2023/07/19 02:17:38;;;;;;;11.20;6.35;;;;;;;;;;6275770;22;20084;-58
2023/07/19 02:20:04;;;;;;;11.85;7.05;;;;;;;;;;6275501;22;20404;-58
2023/07/19 02:22:30;;;;;;;9.38;6.50;;;;;;;;;;6275945;22;20023;-58
2023/07/19 02:24:56;;;;;;;9.55;6.90;;;;;;;;;;6275278;22;20337;-59
2023/07/19 02:27:25;;;;;;;12.27;7.38;;;;;;;;;;6248135;22;20030;-58
2023/07/19 02:29:51;;;;;;;12.77;7.47;;;;;;;;;;6249270;22;20020;-59
2023/07/19 02:32:17;;;;;;;10.50;7.43;;;;;;;;;;6275033;22;20031;-58
2023/07/19 02:34:43;;;;;;;15.07;7.40;;;;;;;;;;6274121;22;20016;-58
2023/07/19 02:37:09;;;;;;;11.38;6.93;;;;;;;;;;6251397;22;20020;-58
2023/07/19 02:39:35;;;;;;;11.50;7.57;;;;;;;;;;6251553;22;20058;-58
2023/07/19 02:42:01;;;;;;;9.68;7.07;;;;;;;;;;6279266;22;20023;-58
2023/07/19 02:44:27;;;;;;;11.27;6.53;;;;;;;;;;6278124;22;20366;-58
2023/07/19 02:46:54;;;;;;;14.60;6.88;;;;;;;;;;6278602;22;20015;-58
2023/07/19 02:49:20;;;;;;;8.95;6.65;;;;;;;;;;6278613;22;20015;-58
2023/07/19 02:51:46;;;;;;;14.25;6.65;;;;;;;;;;6226937;22;20024;-58
2023/07/19 02:54:12;;;;;;;9.65;6.40;;;;;;;;;;6278159;22;20012;-58
2023/07/19 02:56:38;;;;;;;11.32;6.50;;;;;;;;;;6278534;22;20387;-58
2023/07/19 02:59:05;;;;;;;14.85;6.68;;;;;;;;;;6278745;22;20029;-56
2023/07/19 03:01:31;;;;;;;11.27;6.97;;;;;;;;;;6278683;22;20020;-58
2023/07/19 03:03:57;;;;;;;11.73;6.65;;;;;;;;;;6249922;22;20020;-58
2023/07/19 03:06:23;;;;;;;14.80;6.85;;;;;;;;;;6277210;22;20102;-58
2023/07/19 03:08:49;;;;;;;9.65;6.85;;;;;;;;;;6278401;22;20023;-58
2023/07/19 03:11:19;;;;;;;12.25;6.82;;;;;;;;;;6278998;22;20016;-58
2023/07/19 03:13:45;;;;;;;10.82;6.60;;;;;;;;;;6250798;22;20019;-58
2023/07/19 03:16:11;;;;;;;9.77;6.20;;;;;;;;;;6277632;22;20016;-58
2023/07/19 03:18:39;;;;;;;10.40;7.25;;;;;;;;;;6251539;22;20065;-58
2023/07/19 03:21:05;;;;;;;11.00;6.25;;;;;;;;;;6251105;22;20015;-58
2023/07/19 03:23:31;;;;;;;11.50;6.80;;;;;;;;;;6252203;22;20099;-58
2023/07/19 03:25:58;;;;;;;10.30;6.70;;;;;;;;;;6250221;22;20023;-58
2023/07/19 03:28:30;;;;;;;10.13;6.57;;;;;;;;;;6278192;22;20022;-58
2023/07/19 03:30:57;;;;;;;11.43;6.30;;;;;;;;;;6277547;22;20328;-58
2023/07/19 03:33:24;;;;;;;9.18;6.72;;;;;;;;;;6278068;22;20429;-58
2023/07/19 03:35:50;;;;;;;15.05;7.88;;;;;;;;;;6276661;22;20047;-58
2023/07/19 03:38:19;;;;;;;10.07;6.45;;;;;;;;;;6278083;22;20020;-58
2023/07/19 03:40:45;;;;;;;15.40;7.30;;;;;;;;;;6277560;22;20015;-58
2023/07/19 03:43:11;;;;;;;10.65;6.70;;;;;;;;;;6277892;22;20691;-58
2023/07/19 03:45:38;;;;;;;11.65;6.28;;;;;;;;;;6277523;22;20433;-58
2023/07/19 03:48:04;;;;;;;9.05;5.53;;;;;;;;;;6277814;22;20075;-58
2023/07/19 03:50:30;;;;;;;9.85;6.20;;;;;;;;;;6225181;22;20099;-58
2023/07/19 03:52:56;;;;;;;12.70;6.53;;;;;;;;;;6250895;22;20016;-58
2023/07/19 03:55:22;;;;;;;9.90;6.28;;;;;;;;;;6278528;22;20313;-58
2023/07/19 03:57:48;;;;;;;12.15;6.40;;;;;;;;;;6277918;22;20069;-58
2023/07/19 04:00:14;;;;;;;10.43;5.05;;;;;;;;;;6277729;22;20039;-58
2023/07/19 04:02:40;;;;;;;12.02;5.38;;;;;;;;;;6278116;22;20420;-58
2023/07/19 04:05:07;;;;;;;12.55;5.60;;;;;;;;;;6277570;22;20055;-58
2023/07/19 04:07:33;;;;;;;7.85;4.80;;;;;;;;;;6278450;22;20090;-58
2023/07/19 04:09:59;;;;;;;8.32;4.75;;;;;;;;;;6277729;22;20012;-59
2023/07/19 04:12:25;;;;;;;6.63;4.60;;;;;;;;;;6251040;22;20459;-58
2023/07/19 04:14:51;;;;;;;8.32;4.90;;;;;;;;;;6250644;22;20022;-58
2023/07/19 04:17:17;;;;;;;8.30;4.57;;;;;;;;;;6225415;22;20024;-58
2023/07/19 04:19:43;;;;;;;9.85;4.45;;;;;;;;;;6276803;22;20016;-58
2023/07/19 04:22:09;;;;;;;9.13;5.18;;;;;;;;;;6277599;22;20436;-58
2023/07/19 04:24:35;;;;;;;6.45;4.45;;;;;;;;;;6249582;22;20058;-58
2023/07/19 04:27:01;;;;;;;9.00;4.40;;;;;;;;;;6277577;22;20020;-57
2023/07/19 04:29:27;;;;;;;7.78;4.65;;;;;;;;;;6277901;22;20030;-58
2023/07/19 04:31:53;;;;;;;7.00;4.70;;;;;;;;;;6277648;22;20326;-58
2023/07/19 04:34:20;;;;;;;7.43;3.95;;;;;;;;;;6276971;22;20019;-58
2023/07/19 04:36:46;;;;;;;6.72;4.13;;;;;;;;;;6277832;22;20023;-55
2023/07/19 04:39:12;;;;;;;9.98;4.43;;;;;;;;;;6250633;22;20361;-55
2023/07/19 04:41:38;;;;;;;8.52;4.70;;;;;;;;;;6277388;22;20112;-56
2023/07/19 04:44:04;;;;;;;9.63;5.03;;;;;;;;;;6249831;22;20020;-55
2023/07/19 04:46:30;;;;;;;7.72;4.28;;;;;;;;;;6277405;22;20499;-55
2023/07/19 04:48:56;;;;;;;7.55;3.75;;;;;;;;;;6249956;22;20098;-57
2023/07/19 04:51:22;;;;;;;10.68;5.00;;;;;;;;;;6277427;22;20015;-58
2023/07/19 04:53:48;;;;;;;9.20;3.85;;;;;;;;;;6277387;22;20015;-58
2023/07/19 04:56:15;;;;;;;9.23;3.58;;;;;;;;;;6277416;22;20020;-58
2023/07/19 04:58:41;;;;;;;6.53;3.88;;;;;;;;;;6277365;22;20027;-58
2023/07/19 05:01:08;;;;;;;8.15;3.53;;;;;;;;;;6250156;22;20416;-58
2023/07/19 05:03:34;;;;;;;6.88;3.63;;;;;;;;;;6278019;22;20012;-58
2023/07/19 05:06:00;;;;;;;9.65;4.95;;;;;;;;;;6278323;22;20069;-58
2023/07/19 05:08:26;;;;;;;6.65;3.22;;;;;;;;;;6276608;22;20019;-58
2023/07/19 05:10:52;;;;;;;7.10;3.17;;;;;;;;;;6277286;22;20312;-57
2023/07/19 05:13:19;;;;;;;5.18;3.08;;;;;;;;;;6225901;22;20039;-58
2023/07/19 05:15:45;;;;;;;8.07;3.08;;;;;;;;;;6251736;22;20027;-58
2023/07/19 05:18:11;;;;;;;6.53;2.53;;;;;;;;;;6279370;22;20020;-58
2023/07/19 05:20:37;;;;;;;5.25;2.20;;;;;;;;;;6278922;22;20427;-58
2023/07/19 05:23:03;;;;;;;7.75;2.90;;;;;;;;;;6279321;22;20019;-58
2023/07/19 05:25:29;;;;;;;6.03;1.85;;;;;;;;;;6279352;22;20073;-58
2023/07/19 05:27:55;;;;;;;6.57;2.20;;;;;;;;;;6252227;22;20015;-58
2023/07/19 05:30:21;;;;;;;4.80;2.30;;;;;;;;;;6252386;22;20150;-57
2023/07/19 05:32:47;;;;;;;7.53;2.08;;;;;;;;;;6252927;22;20023;-57
2023/07/19 05:35:13;;;;;;;6.35;2.53;;;;;;;;;;6279239;22;20098;-57
2023/07/19 05:37:40;;;;;;;3.55;2.30;;;;;;;;;;6279287;22;20058;-57
2023/07/19 05:40:07;;;;;;;6.47;2.40;;;;;;;;;;6278664;22;20015;-56
2023/07/19 05:42:33;;;;;;;4.70;2.30;;;;;;;;;;6279228;22;20023;-55
2023/07/19 05:44:59;;;;;;;4.20;2.42;;;;;;;;;;6251811;22;20026;-55
2023/07/19 05:47:26;;;;;;;6.43;2.22;;;;;;;;;;6278678;22;20146;-55
2023/07/19 05:49:52;;;;;;;4.90;2.20;;;;;;;;;;6279136;22;20028;-57
2023/07/19 05:52:18;;;;;;;5.32;2.20;;;;;;;;;;6226836;22;20058;-57
2023/07/19 05:54:45;;;;;;;4.35;2.00;;;;;;;;;;6250964;22;20015;-57
2023/07/19 05:57:11;;;;;;;4.65;1.80;;;;;;;;;;6252069;22;20019;-57
2023/07/19 05:59:37;;;;;;;5.70;1.92;;;;;;;;;;6278528;22;20023;-57
2023/07/19 06:02:04;;;;;;;3.53;1.70;;;;;;;;;;6278935;22;20020;-57
2023/07/19 06:04:30;;;;;;;3.85;1.38;;;;;;;;;;6278536;22;20020;-57
2023/07/19 06:06:56;;;;;;;2.95;1.67;;;;;;;;;;6278891;22;20096;-57
2023/07/19 06:09:22;;;;;;;4.28;1.42;;;;;;;;;;6278979;22;20020;-57
2023/07/19 06:11:48;;;;;;;4.70;3.03;;;;;;;;;;6278207;22;20019;-57
2023/07/19 06:14:14;;;;;;;6.53;1.70;;;;;;;;;;6278887;22;20054;-57
2023/07/19 06:16:40;;;;;;;7.53;3.15;;;;;;;;;;6278867;22;20030;-56
2023/07/19 06:19:06;;;;;;;3.92;1.98;;;;;;;;;;6279509;22;20069;-57
2023/07/19 06:21:32;;;;;;;5.05;2.03;;;;;;;;;;6278768;22;20095;-57
2023/07/19 06:23:58;;;;;;;6.40;2.38;;;;;;;;;;6279422;22;20023;-57
2023/07/19 06:26:25;;;;;;;4.65;2.13;;;;;;;;;;6278597;22;20019;-57
2023/07/19 06:28:51;;;;;;;4.82;2.55;;;;;;;;;;6278732;22;20432;-57
2023/07/19 06:31:17;;;;;;;4.50;1.85;;;;;;;;;;6277800;22;20019;-57
2023/07/19 06:33:43;;;;;;;4.78;2.00;;;;;;;;;;6252516;22;20023;-57
2023/07/19 06:36:09;;;;;;;7.65;2.63;;;;;;;;;;6278636;22;20019;-57
2023/07/19 06:38:38;;;;;;;6.03;2.20;;;;;;;;;;6278535;22;20091;-57
2023/07/19 06:41:04;;;;;;;4.05;2.42;;;;;;;;;;6277537;22;20432;-57
2023/07/19 06:43:30;;;;;;;7.07;2.28;;;;;;;;;;6278174;22;20019;-57
2023/07/19 06:45:56;;;;;;;7.30;2.63;;;;;;;;;;6278624;22;20016;-57
2023/07/19 06:48:23;;;;;;;5.55;2.63;;;;;;;;;;6278638;22;20422;-57
2023/07/19 06:50:50;;;;;;;6.10;2.97;;;;;;;;;;6278558;22;20030;-57
2023/07/19 06:53:16;;;;;;;6.60;2.20;;;;;;;;;;6278362;22;20015;-57
2023/07/19 06:55:42;;;;;;;5.55;2.45;;;;;;;;;;6250988;22;20338;-57
2023/07/19 06:58:08;;;;;;;8.20;2.38;;;;;;;;;;6279099;22;20077;-57
2023/07/19 07:00:34;;;;;;;5.85;2.25;;;;;;;;;;6277802;22;20019;-57
2023/07/19 07:03:03;;;;;;;4.25;2.03;;;;;;;;;;6251391;22;20020;-57
2023/07/19 07:05:29;;;;;;;3.70;2.10;;;;;;;;;;6279040;22;20086;-57
2023/07/19 07:07:55;;;;;;;6.47;2.72;;;;;;;;;;6278355;22;20094;-57
2023/07/19 07:10:21;;;;;;;8.52;2.78;;;;;;;;;;6278092;22;20066;-57
2023/07/19 07:12:47;;;;;;;6.03;2.58;;;;;;;;;;6277419;22;20022;-58
2023/07/19 07:15:13;;;;;;;6.40;2.70;;;;;;;;;;6276214;22;20062;-58
2023/07/19 07:17:44;;;;;;;6.70;2.63;;;;;;;;;;6277474;22;20015;-57
2023/07/19 07:20:10;;;;;;;9.30;2.50;;;;;;;;;;6278093;22;20019;-57
2023/07/19 07:22:36;;;;;;;6.22;2.42;;;;;;;;;;6278253;22;20019;-57
2023/07/19 07:25:02;;;;;;;3.40;2.08;;;;;;;;;;6250654;22;20065;-57
2023/07/19 07:27:28;;;;;;;5.82;2.30;;;;;;;;;;6225818;22;20020;-57
2023/07/19 07:29:54;;;;;;;3.75;1.70;;;;;;;;;;6278106;22;20011;-58
2023/07/19 07:32:20;;;;;;;5.00;1.92;;;;;;;;;;6244755;23;20457;-58
2023/07/19 07:34:46;;;;;;;5.05;1.45;;;;;;;;;;6246349;23;20329;-58
2023/07/19 07:37:12;;;;;;;8.25;1.83;;;;;;;;;;6244498;23;20364;-57
2023/07/19 07:39:39;;;;;;;3.55;1.65;;;;;;;;;;6243229;23;20024;-58
2023/07/19 07:42:07;;;;;;;4.63;1.92;;;;;;;;;;6245075;23;20059;-58
2023/07/19 07:44:33;;;;;;;3.60;1.70;;;;;;;;;;6245603;22;20051;-58
2023/07/19 07:46:59;;;;;;;5.60;1.70;;;;;;;;;;6219375;23;20024;-55
2023/07/19 07:49:25;;;;;;;10.35;1.70;;;;;;;;;;6246514;23;20016;-55
2023/07/19 07:51:52;;;;;;;3.60;1.33;;;;;;;;;;6244074;23;20016;-56
2023/07/19 07:54:18;;;;;;;3.90;1.75;;;;;;;;;;6245852;23;20440;-56
2023/07/19 07:56:44;;;;;;;4.97;1.98;;;;;;;;;;6245508;23;20333;-56
2023/07/19 07:59:10;;;;;;;7.57;1.90;;;;;;;;;;6245489;23;20062;-56
2023/07/19 08:01:36;;;;;;;6.15;2.03;;;;;;;;;;6242652;23;20089;-56
2023/07/19 08:04:02;;;;;;;7.78;2.53;;;;;;;;;;6246413;23;20309;-56
2023/07/19 08:06:28;;;;;;;7.05;2.20;;;;;;;;;;6244217;23;20016;-56
2023/07/19 08:08:54;;;;;;;4.45;2.10;;;;;;;;;;6245859;23;20364;-56
2023/07/19 08:11:21;;;;;;;5.03;2.38;;;;;;;;;;6244803;23;20094;-56
2023/07/19 08:13:47;;;;;;;8.35;2.65;;;;;;;;;;6245418;22;20459;-56
2023/07/19 08:16:14;;;;;;;4.68;2.60;;;;;;;;;;6243375;23;20087;-56
2023/07/19 08:18:40;;;;;;;4.45;2.88;;;;;;;;;;6245272;23;20020;-57
2023/07/19 08:21:06;;;;;;;6.60;2.90;;;;;;;;;;6243510;23;20376;-56
2023/07/19 08:23:33;;;;;;;6.80;2.30;;;;;;;;;;6246393;23;20016;-56
2023/07/19 08:25:59;;;;;;;7.18;2.53;;;;;;;;;;6245795;23;20020;-56
2023/07/19 08:28:25;;;;;;;4.88;2.17;;;;;;;;;;6245717;23;20043;-56
2023/07/19 08:30:52;;;;;;;4.83;2.10;;;;;;;;;;6210394;22;1079146;-56
2023/07/19 08:33:19;;;;;;;6.43;2.38;;;;;;;;;;6277594;22;20579;-56
2023/07/19 08:35:45;;;;;;;7.28;1.88;;;;;;;;;;6278287;22;20019;-56
2023/07/19 08:38:12;;;;;;;5.70;2.10;;;;;;;;;;6277499;22;20015;-56
2023/07/19 08:40:39;;;;;;;4.38;2.13;;;;;;;;;;6277319;22;20011;-56
2023/07/19 08:43:06;;;;;;;4.03;1.70;;;19.90;99.90;;;;;;6278163;22;20325;-56
2023/07/19 08:45:36;;;;;;;6.45;1.92;;;20.10;99.90;;;;;;6250395;22;20016;-57
2023/07/19 08:48:02;;;;;;;5.32;2.25;;;;;;;;;;6250798;22;20087;-57
2023/07/19 08:50:28;;;;;;;3.92;1.80;;;;;;;;;;6277437;22;20042;-57
2023/07/19 08:52:53;;;;;;;5.00;2.10;;;20.30;99.90;;;;;;6277447;22;20022;-57
2023/07/19 08:55:20;;;;;;;3.00;1.75;;;20.40;99.90;;;;;;6277449;22;20055;-56
2023/07/19 08:57:46;;;;;;;4.88;2.03;;;;;;;;;;6249984;22;20012;-57
2023/07/19 09:00:16;;;;;;;3.38;1.80;;;;;;;;;;6250543;22;20095;-56
2023/07/19 09:02:42;;;;;;;6.13;2.50;;;;;;;;;;6277815;22;20031;-57
2023/07/19 09:05:13;;;;;;;5.20;1.63;;;20.00;99.90;;;;;;6249843;22;20022;-56
2023/07/19 09:07:40;;;;;;;7.25;1.40;;;;;;;;;;6278005;22;20055;-56
2023/07/19 09:10:07;;;;;;;3.65;1.48;;;20.10;99.90;;;;;;6276920;22;20019;-56
2023/07/19 09:12:38;;;;;;;3.83;1.98;;;19.90;99.90;;;;;;6277319;22;20018;-56
2023/07/19 09:15:05;;;;;;;3.13;1.50;;;;;;;;;;6277265;22;20016;-56
2023/07/19 09:17:35;;;;;;;6.65;1.60;;;;;;;;;;6277302;22;20016;-56
2023/07/19 09:20:01;;;;;;;7.80;1.90;;;;;;;;;;6250478;22;20020;-56
2023/07/19 09:22:28;;;;;;;3.00;1.50;;;;;;;;;;6250206;22;20022;-56
2023/07/19 09:25:01;;;;;;;10.18;2.00;;;;;;;;;;6277242;22;20098;-56
2023/07/19 09:27:27;;;;;;;3.75;1.95;;;;;;;;;;6276986;22;20432;-56
2023/07/19 09:29:53;;;;;;;4.70;2.10;;;;;;;;;;6276645;22;20050;-56
2023/07/19 09:32:20;;;;;;;3.45;2.15;;;;;;;;;;6277374;22;20051;-56
2023/07/19 09:34:46;;;;;;;6.38;2.25;;;;;;;;;;6277851;22;20019;-56
2023/07/19 09:37:12;;;;;;;5.10;1.85;;;;;;;;;;6277212;22;20020;-56
2023/07/19 09:39:40;;;;;;;4.55;2.03;;;;;;;;;;6277057;22;20016;-56
2023/07/19 09:42:08;;;;;;;6.65;2.20;;;;;;;;;;6277133;22;20015;-56
2023/07/19 09:44:36;;;;;;;4.43;1.50;;;;;;;;;;6276718;22;20496;-56
2023/07/19 09:47:02;;;;;;;3.83;1.90;;;;;;;;;;6277142;22;20083;-56
2023/07/19 09:49:28;;;;;;;6.05;1.70;;;;;;;;;;6277057;22;20073;-56
2023/07/19 09:51:56;;;;;;;4.28;1.60;;;;;;;;;;6277038;22;20030;-56
2023/07/19 09:54:25;;;;;;;4.60;1.83;;;19.60;99.90;;;;;;6277059;22;20149;-56
2023/07/19 09:56:51;;;;;;;5.70;1.80;;;;;;;;;;6278139;22;20031;-56
2023/07/19 09:59:31;;;;;;;6.03;2.05;;;;;;;;;;6277122;22;20069;-56
2023/07/19 10:01:57;;;;;;;3.78;1.83;;;;;;;;;;6277678;22;20055;-56
2023/07/19 10:04:28;;;;;;;4.90;1.60;;;20.00;99.90;;;;;;6251798;22;20439;-56
2023/07/19 10:07:07;;;;;;;4.82;1.98;;;;;;;;;;6252717;22;20038;-57
2023/07/19 10:09:33;;;;;;;7.32;1.95;;;;;;;;;;6252256;22;20368;-56
2023/07/19 10:12:00;;;;;;;5.65;1.63;;;;;;;;;;6279348;22;20015;-56
2023/07/19 10:14:27;;;;;;;4.78;1.40;;;20.40;99.90;;;;;;6278945;22;20030;-56
2023/07/19 10:16:57;;;;;;;2.92;1.55;;;;;;;;;;6278104;22;20043;-57
2023/07/19 10:19:26;;;;;;;3.70;1.40;;;20.60;99.90;;;;;;6278892;22;20054;-60
2023/07/19 10:22:04;;;;;;;3.15;1.15;;;;;;;;;;6251731;22;20019;-60
2023/07/19 10:24:37;;;;;;;3.90;1.30;;;20.80;99.90;;;;;;6252541;22;20023;-60
2023/07/19 10:27:07;;;;;;;4.15;1.95;;;20.80;99.90;;;;;;6278171;22;20033;-60
2023/07/19 10:29:47;;;;;;;3.63;1.40;;;;;;;;;;6278180;22;20012;-59
2023/07/19 10:32:19;;;;;;;4.75;1.63;;;;;;;;;;6278247;22;20053;-59
2023/07/19 10:34:45;;;;;;;6.72;1.67;;;;;;;;;;6278759;22;20104;-60
2023/07/19 10:37:11;;;;;;;4.88;1.85;;;;;;;;;;6278664;22;20019;-60
2023/07/19 10:39:37;;;;;;;6.85;1.73;;;;;;;;;;6278830;22;20494;-60
2023/07/19 10:42:03;;;;;;;8.13;2.88;;;;;;;;;;6279363;22;20278;-60
2023/07/19 10:44:30;;;;;;;6.07;2.28;;;;;;;;;;6278585;22;20012;-59
2023/07/19 10:46:56;;;;;;;8.32;2.40;;;;;;;;;;6278564;22;20051;-60
2023/07/19 10:49:23;;;;;;;4.90;1.77;;;;;;;;;;6279212;22;20020;-60
2023/07/19 10:51:56;;;;;;;5.22;1.90;;;;;;;;;;6251797;22;20141;-60
2023/07/19 10:54:23;;;;;;;3.38;1.55;;;;;;;;;;6278107;22;20016;-60
2023/07/19 10:56:50;;;;;;;2.60;1.30;;;20.60;99.90;;;;;;6250261;22;20075;-61
2023/07/19 10:59:17;;;;;;;6.65;1.85;;;;;;;;;;6277899;22;20019;-60
2023/07/19 11:01:43;;;;;;;4.38;1.63;;;;;;;;;;6278351;22;20019;-61
2023/07/19 11:04:12;;;;;;;5.28;1.70;;;20.80;99.90;;;;;;6226206;22;20099;-61
2023/07/19 11:06:51;;;;;;;5.28;2.08;;;21.10;99.90;;;;;;6277732;22;20023;-61
2023/07/19 11:09:18;;;;;;;4.13;1.70;;;21.20;99.90;;;;;;6276152;22;20023;-60
2023/07/19 11:11:44;;;;;;;3.92;1.90;;;;;;;;;;6278087;22;20022;-61
2023/07/19 11:14:29;;;;;;;6.00;1.80;;;21.30;99.90;;;;;;6278372;22;20020;-60
2023/07/19 11:16:56;;;;;;;4.63;1.90;;;21.40;99.90;;;;;;6250324;22;20019;-60
2023/07/19 11:19:38;;;;;;;6.07;2.03;;;21.60;99.90;;;;;;6250693;22;20007;-60
2023/07/19 11:22:05;;;;;;;4.72;2.20;;;21.80;99.90;;;;;;6251170;22;20026;-61
2023/07/19 11:24:39;;;;;;;5.38;1.63;;;21.70;99.90;;;;;;6250323;22;20015;-60
2023/07/19 11:27:06;;;;;;;8.27;2.47;;;21.60;99.90;;;;;;6250522;22;20539;-60
2023/07/19 11:29:33;;;;;;;7.45;2.35;;;21.60;99.90;;;;;;6225360;22;20019;-60
2023/07/19 11:32:16;;;;;;;5.55;2.33;;;21.50;99.90;;;;;;6278683;22;20030;-60
2023/07/19 11:34:46;;;;;;;5.85;2.80;;;;;;;;;;6278140;22;20099;-60
2023/07/19 11:37:16;;;;;;;;;;;20.80;99.90;;;;;;6278603;22;20013;-60
2023/07/19 11:39:41;;;;;;;7.90;2.80;;;20.80;99.90;;;;;;6277912;22;19911;-60
2023/07/19 11:42:07;;;;;;;9.13;2.80;;;20.80;99.90;;;;;;6278031;22;20094;-60
2023/07/19 11:44:42;;;;;;;7.93;3.47;;;;;;;;;;6277116;22;20051;-60
2023/07/19 11:47:08;;;;;;;7.45;3.75;;;;;;;;;;6278012;22;20452;-58
2023/07/19 11:49:33;;;;;;;8.18;3.90;;;20.00;99.90;;;;;;6250828;22;20436;-58
2023/07/19 11:51:59;;;;;;;8.90;4.00;;;;;;;;;;6250648;22;20034;-58
2023/07/19 11:54:25;;;;;;;9.00;3.97;;;;;;;;;;6277589;22;20027;-58
2023/07/19 11:56:51;;;;;;;6.07;3.30;;;;;;;;;;6250934;22;20293;-59
2023/07/19 11:59:18;;;;;;;6.28;4.57;;;;;;;;;;6277739;22;20016;-59
2023/07/19 12:01:43;;;;;;;7.35;3.88;;;19.80;99.90;;;;;;6278113;22;20466;-58
2023/07/19 12:04:09;;;;;;;7.15;3.55;;;;;;;;;;6276760;22;20019;-58
2023/07/19 12:06:35;;;;;;;6.18;3.70;;;;;;;;;;6277415;22;20309;-58
2023/07/19 12:09:02;;;;;;;8.82;4.18;;;;;;;;;;6277737;22;20023;-58
2023/07/19 12:11:28;;;;;;;8.52;3.58;;;;;;;;;;6277136;22;20011;-58
2023/07/19 12:13:56;;;;;;;6.68;3.90;;;;;;;;;;6277709;22;20015;-58
2023/07/19 12:16:23;;;;;;;11.27;4.82;;;;;;;;;;6250133;22;20030;-58
2023/07/19 12:18:49;;;;;;;5.72;3.17;;;;;;;;;;6249860;22;20023;-58
2023/07/19 12:21:15;;;;;;;5.53;3.70;;;;;;;;;;6277544;22;20050;-58
2023/07/19 12:23:42;;;;;;;10.45;3.60;;;;;;;;;;6250177;22;20016;-58
2023/07/19 12:26:09;;;;;;;9.23;3.47;;;;;;;;;;6224289;22;20141;-58
2023/07/19 12:28:35;;;;;;;6.85;3.22;;;;;;;;;;6276094;22;20020;-58
2023/07/19 12:31:01;;;;;;;8.50;3.67;;;;;;;;;;6245205;23;20020;-58
2023/07/19 12:33:27;;;;;;;6.13;3.38;;;;;;;;;;6244718;23;20498;-58
2023/07/19 12:35:53;;;;;;;7.47;3.38;;;20.70;99.90;;;;;;6245452;23;20024;-60
2023/07/19 12:38:19;;;;;;;6.53;3.20;;;;;;;;;;6246872;22;20012;-57
2023/07/19 12:40:45;;;;;;;9.30;3.22;;;;;;;;;;6245575;23;20020;-57
2023/07/19 12:43:11;;;;;;;5.47;3.63;;;20.40;99.90;;;;;;6246849;22;20016;-57
2023/07/19 12:45:37;;;;;;;7.75;4.20;;;;;;;;;;6245305;23;20030;-59
2023/07/19 12:48:03;;;;;;;12.15;4.18;;;;;;;;;;6246333;22;20078;-59
2023/07/19 12:50:29;;;;;;;7.45;4.45;;;20.30;99.90;;;;;;6246776;23;20483;-59
2023/07/19 12:52:55;;;;;;;6.75;4.10;;;;;;;;;;6247119;23;20024;-58
2023/07/19 14:47:40;;;;;;;3.15;1.20;;;;;;;;;;6141014;22;2288495;-58
2023/07/19 14:50:06;;;;;;;3.00;0.77;;;23.00;99.90;;;;;;6214840;23;20326;-58
2023/07/19 14:52:32;;;;;;;4.53;1.20;;;23.70;99.90;;;;;;6217077;23;20017;-58
2023/07/19 14:55:00;;;;;;;4.78;1.60;;;23.30;99.90;;;;;;6217455;23;20016;-58
2023/07/19 14:57:26;;;;;;;1.42;0.63;;;23.30;99.90;;;;;;6217440;23;20012;-58
2023/07/19 14:59:52;;;;;;;3.70;1.42;;;;;;;;;;6217279;23;20036;-58
2023/07/19 15:02:18;;;;;;;3.90;1.10;;;;;;;;;;6217375;23;20063;-58
2023/07/19 15:04:46;;;;;;;4.57;0.98;;;;;;;;;;6217529;23;20425;-58
2023/07/19 15:07:12;;;;;;;2.00;0.90;;;;;;;;;;6217257;23;20012;-58
2023/07/19 15:09:38;;;;;;;1.80;0.90;;;;;;;;;;6216096;23;20017;-58
2023/07/19 15:12:05;;;;;;;4.80;0.85;;;;;;;;;;6218568;23;20016;-58
2023/07/19 15:14:32;;;;;;;2.60;0.82;;;;;;;;;;6216807;23;20043;-58
2023/07/19 15:16:58;;;;;;;1.83;0.70;;;22.00;99.90;;;;;;6216802;23;20009;-58
2023/07/19 15:19:23;;;;;;;3.20;0.90;;;21.70;99.90;;;;;;6215972;23;20020;-58
2023/07/19 15:21:49;;;;;;;3.08;1.00;;;;;;;;;;6217286;23;20043;-58
2023/07/19 15:24:17;;;;;;;2.53;0.85;;;;;;;;;;6216686;23;20013;-58
2023/07/19 15:26:43;;;;;;;4.10;1.30;;;;;;;;;;6215271;23;20013;-58
2023/07/19 15:29:09;;;;;;;2.17;1.02;;;21.70;99.90;;;;;;6217138;23;20295;-58
2023/07/19 15:31:35;;;;;;;4.78;0.68;;;;;;;;;;6215900;23;20020;-58
2023/07/19 15:34:01;;;;;;;2.20;0.80;;;21.70;99.90;;;;;;6216987;23;20058;-57
2023/07/19 15:36:28;;;;;;;3.33;1.13;;;;;;;;;;6216915;23;20048;-58
2023/07/19 15:38:54;;;;;;;2.13;1.00;;;21.70;99.90;;;;;;6216274;23;20012;-58
2023/07/19 15:41:20;;;;;;;3.63;0.98;;;;;;;;;;6217041;23;20022;-58
2023/07/19 15:43:46;;;;;;;3.20;1.00;;;21.70;99.90;;;;;;6217560;23;20027;-58
2023/07/19 15:46:13;;;;;;;2.25;0.90;;;;;;;;;;6216874;23;20009;-58
2023/07/19 15:48:38;;;;;;;3.35;0.80;;;21.50;99.90;;;;;;6215823;23;20349;-59
2023/07/19 15:51:05;;;;;;;2.63;0.90;;;;;;;;;;6215931;23;20092;-59
2023/07/19 15:53:36;;;;;;;1.20;0.80;;;;;;;;;;6215679;23;20017;-59
2023/07/19 15:56:02;;;;;;;;;;;21.00;99.90;;;;;;6216734;23;20017;-59
2023/07/19 15:58:28;;;;;;;1.98;0.90;;;;;;;;;;6216439;23;19994;-59
2023/07/19 16:00:55;;;;;;;1.77;0.90;;;;;;;;;;6190413;23;20013;-59
2023/07/19 16:03:22;;;;;;;3.40;0.82;;;;;;;;;;6190200;23;20016;-59
2023/07/19 16:05:48;;;;;;;2.40;0.80;;;21.10;99.90;;;;;;6215218;23;20008;-59
2023/07/19 16:08:14;;;;;;;1.98;0.77;;;;;;;;;;6215269;23;20027;-59
2023/07/19 16:10:39;;;;;;;5.88;0.93;;;21.00;99.90;;;;;;6217370;23;20283;-59
2023/07/19 16:13:05;;;;;;;2.55;0.70;;;;;;;;;;6216631;23;20130;-59